Sacramento, CA

5:18 AM PDT on August 31, 2014 (GMT -0700)
MIDTOWN | Change Station
CLOSE
Current Station
Personal Weather Station
Location: SACRAMENTO, CA
Elevation: 24 ft
Nearby Weather Stations

Elev 24 ft 38.57 °N, 121.48 °W | Updated 14 seconds ago

Clear
Clear
61.7 °F
Feels Like 61.7 °F
N
1.8
Wind Variable Wind from SSW
Gusts 2.5 mph

Today
High -- | Low -- °F
--% Chance of Precip.
Yesterday
High -- | Low -- °F
Precip. -- in
6:34 AM 7:37 PM
Waxing Crescent, 30% visible
Pressure 29.83 in
Visibility 10.0 miles
Clouds Clear
Dew Point 56 °F
Humidity 83%
Rainfall 0.00 in
Snow Depth Not available.
UV 0.0 out of 12
Pollen 8.30 out of 12
Ozone Good
PM2.5 Good
Flu Activity Not available.
METAR KSAC 311153Z AUTO 16003KT 10SM CLR 18/13 A2983 RMK AO2 SLP099 T01830128 10222 20183 53005

More Conditions Fewer Conditions

Pressure 29.83 in
Visibility 10.0 miles
Clouds Clear
Dew Point 56 °F
Humidity 83%
Rainfall 0.00 in
Snow Depth Not available.
UV 0.0 out of 12
Pollen 8.30 out of 12
Ozone Good
PM2.5 Good
Flu Activity Not available.
METAR KSAC 311153Z AUTO 16003KT 10SM CLR 18/13 A2983 RMK AO2 SLP099 T01830128 10222 20183 53005

More Conditions Fewer Conditions

10-Day Weather Forecast

Almanac

Astronomy

Aug. 31, 2014 Rise Set
Actual Time 6:34 AM PDT 7:37 PM PDT
Civil Twilight 6:07 AM PDT 8:04 PM PDT
Nautical Twilight 5:34 AM PDT 8:36 PM PDT
Astronomical Twilight 5:01 AM PDT 9:10 PM PDT
Moon 12:21 PM PDT 11:00 PM PDT
Length of Visible Light 13h 57m
Length of Day
13h 02m
Tomorrow will be 2m 23s shorter.
Waxing Crescent, 30% of the Moon is Illuminated
Today
Waxing Crescent
Sep 2
First Quarter
Sep 8
Full
Sep 15
Last Quarter
Sep 24
New

Today's Extremes

State Highs State Lows

Community

WunderPhotos

Upload Photos

1,748,853 photos uploaded!

Nearby

Air Quality

  Air Quality AQ Index Pollutant
Yesterday Moderate
OZONE
Yesterday Good
PM10
Current Good
PM2.5
Current Good
OZONE
Sunday Moderate
OZONE
Monday Moderate
OZONE
Tuesday Moderate
OZONE
Wednesday Moderate
OZONE
Thursday Moderate
OZONE

Snow Depth

Station Depth Elevation
Squaw Valley 0 in 8200 ft
Rubicon #2 0 in 7500 ft
Echo Peak 1 in 7800 ft
CSS Lab 3 in 6900 ft
Fallen Leaf 0 in 6300 ft

Earthquake Activity

City Distance Mag. Time & Date
Napa, California 51 miles 3.2 1:56 AM PDT
2014-08-31
Gonzales, California 135 miles 2.7 9:48 PM PDT
2014-08-30
Ridgemark, California 131 miles 3.4 4:32 PM PDT
2014-08-29
The Geysers, California 73 miles 2.7 2:53 PM PDT
2014-08-29
Minimum magnitude displayed is 2.5.

Coastal Water Temperatures

Place Temperature
No Stations Reporting

Nearby Weather Stations